Time;durP1;ratioP1;P1;durP2;ratioP2;P2;SDS_P1;SDS_P2;PMS_P1;PMS_P2;Temp;Humidity;BMP_temperature;BMP_pressure;BME280_temperature;BME280_humidity;BME280_pressure;Samples;Min_cycle;Max_cycle;Signal;HPM_P1;HPM_P2
2021/03/25 00:00:29;;;;;;;62.63;30.40;;;4.70;90.50;;;;;;4979757;28;20050;-76
2021/03/25 00:02:58;;;;;;;62.63;33.60;;;4.60;90.50;;;;;;4980720;28;20278;-77
2021/03/25 00:05:25;;;;;;;64.97;33.17;;;4.60;90.90;;;;;;4973234;28;20038;-77
2021/03/25 00:07:51;;;;;;;68.28;33.42;;;4.60;90.80;;;;;;4978762;28;20346;-77
2021/03/25 00:10:25;;;;;;;62.83;32.35;;;4.60;90.80;;;;;;4955430;28;20046;-78
2021/03/25 00:12:50;;;;;;;72.65;31.95;;;4.60;90.80;;;;;;4982093;28;20093;-80
2021/03/25 00:15:17;;;;;;;60.30;32.08;;;4.60;90.80;;;;;;4964157;28;20069;-78
2021/03/25 00:17:43;;;;;;;68.85;32.80;;;4.50;90.80;;;;;;4976907;28;20070;-80
2021/03/25 00:20:12;;;;;;;68.38;33.20;;;4.50;90.70;;;;;;4973277;28;20034;-78
2021/03/25 00:22:39;;;;;;;64.03;32.15;;;4.50;90.80;;;;;;4979045;28;20031;-77
2021/03/25 00:25:08;;;;;;;62.58;32.45;;;4.40;90.80;;;;;;4958003;28;20229;-79
2021/03/25 00:27:34;;;;;;;66.95;33.60;;;4.50;90.90;;;;;;4974634;28;20045;-79
2021/03/25 00:30:00;;;;;;;60.53;31.80;;;4.40;90.80;;;;;;4981487;28;20030;-78
2021/03/25 00:32:26;;;;;;;65.78;32.75;;;4.40;90.80;;;;;;4977939;28;20065;-78
2021/03/25 00:34:52;;;;;;;63.58;31.13;;;4.30;90.90;;;;;;4960473;28;20029;-79
2021/03/25 00:37:18;;;;;;;66.25;32.67;;;4.30;90.90;;;;;;4977000;28;20042;-78
2021/03/25 00:39:44;;;;;;;67.65;33.58;;;4.30;90.90;;;;;;4975636;28;20039;-78
2021/03/25 00:42:10;;;;;;;64.95;33.80;;;4.20;91.00;;;;;;4975869;28;20038;-79
2021/03/25 00:44:36;;;;;;;70.80;35.58;;;4.30;91.00;;;;;;4981793;28;20037;-78
2021/03/25 00:47:01;;;;;;;67.10;35.05;;;4.30;91.40;;;;;;4978738;28;20042;-77
2021/03/25 00:49:28;;;;;;;73.15;35.20;;;4.30;91.20;;;;;;4978963;28;20026;-77
2021/03/25 00:51:54;;;;;;;76.90;36.70;;;4.30;91.30;;;;;;4944624;28;20501;-77
2021/03/25 00:54:20;;;;;;;65.20;33.95;;;4.30;91.50;;;;;;4980304;28;20042;-77
2021/03/25 00:56:45;;;;;;;72.38;36.53;;;4.30;91.30;;;;;;4975493;28;20715;-79
2021/03/25 00:59:11;;;;;;;79.72;36.88;;;4.30;91.30;;;;;;4976966;28;20480;-77
2021/03/25 01:01:37;;;;;;;67.85;37.42;;;4.40;91.40;;;;;;4985278;28;20101;-79
2021/03/25 01:04:03;;;;;;;66.95;35.47;;;4.30;91.40;;;;;;4984673;28;20933;-77
2021/03/25 01:06:29;;;;;;;76.53;34.88;;;4.30;91.60;;;;;;4981885;28;20374;-81
2021/03/25 01:08:55;;;;;;;75.88;37.13;;;4.30;91.60;;;;;;4965224;28;20121;-77
2021/03/25 01:11:27;;;;;;;70.95;35.30;;;4.40;91.60;;;;;;4950502;28;20294;-77
2021/03/25 01:13:56;;;;;;;62.83;33.80;;;4.30;91.50;;;;;;4980540;28;20727;-78
2021/03/25 01:16:40;;;;;;;79.57;37.42;;;4.30;91.50;;;;;;4983987;28;20030;-77
2021/03/25 01:19:11;;;;;;;72.32;35.80;;;4.30;91.60;;;;;;4990254;28;20408;-77
2021/03/25 01:21:38;;;;;;;74.55;37.13;;;4.30;91.70;;;;;;4987344;28;20129;-79
2021/03/25 01:24:05;;;;;;;66.50;34.67;;;4.30;91.60;;;;;;4980614;28;20047;-78
2021/03/25 01:26:31;;;;;;;72.45;35.30;;;4.20;91.60;;;;;;4984499;28;20036;-79
2021/03/25 01:29:00;;;;;;;74.70;35.47;;;4.30;91.60;;;;;;4982402;28;20234;-77
2021/03/25 01:31:27;;;;;;;74.20;37.53;;;4.30;91.60;;;;;;4982836;28;20042;-79
2021/03/25 01:33:53;;;;;;;68.25;35.38;;;4.20;91.60;;;;;;4980322;28;20026;-77
2021/03/25 01:36:20;;;;;;;81.28;41.00;;;4.20;91.70;;;;;;4984518;28;20042;-77
2021/03/25 01:38:46;;;;;;;78.53;37.97;;;4.30;91.80;;;;;;4977254;28;20604;-77
2021/03/25 01:41:11;;;;;;;81.20;39.85;;;4.30;91.80;;;;;;4979551;28;20133;-77
2021/03/25 01:43:40;;;;;;;76.88;38.38;;;4.30;91.90;;;;;;4985891;28;20101;-79
2021/03/25 01:46:27;;;;;;;83.57;38.40;;;4.40;91.90;;;;;;4982419;28;20039;-78
2021/03/25 01:49:02;;;;;;;71.07;36.20;;;4.40;92.10;;;;;;4981338;28;20077;-77
2021/03/25 01:51:43;;;;;;;77.05;37.95;;;4.40;91.90;;;;;;4984165;28;20049;-80
2021/03/25 01:54:37;;;;;;;73.28;36.80;;;4.40;91.80;;;;;;4986626;28;20030;-77
2021/03/25 01:57:40;;;;;;;71.72;37.53;;;4.40;91.90;;;;;;4981695;28;20030;-78
2021/03/25 02:00:09;;;;;;;76.95;37.72;;;4.40;91.90;;;;;;4982749;28;20045;-80
2021/03/25 02:02:37;;;;;;;70.45;37.55;;;4.40;91.90;;;;;;4984718;28;20340;-78
2021/03/25 02:05:12;;;;;;;77.45;36.83;;;4.50;92.20;;;;;;4994346;28;20043;-78
2021/03/25 02:07:57;;;;;;;78.13;36.38;;;4.50;92.00;;;;;;4978314;28;20058;-78
2021/03/25 02:10:45;;;;;;;77.28;37.03;;;4.50;91.90;;;;;;4981936;28;20260;-80
2021/03/25 02:13:43;;;;;;;72.10;36.03;;;4.50;91.90;;;;;;4981588;28;20030;-78
2021/03/25 02:16:21;;;;;;;71.72;35.92;;;4.50;92.00;;;;;;4980697;28;20506;-77
2021/03/25 02:19:10;;;;;;;76.60;36.75;;;4.50;92.00;;;;;;4985022;28;20124;-80
2021/03/25 02:22:05;;;;;;;70.57;36.13;;;4.50;91.90;;;;;;4977320;28;20480;-77
2021/03/25 02:25:02;;;;;;;59.17;33.38;;;4.50;91.90;;;;;;4990860;28;20046;-80
2021/03/25 02:28:03;;;;;;;66.70;32.97;;;4.40;91.90;;;;;;4982297;28;20034;-78
2021/03/25 02:30:44;;;;;;;58.05;32.13;;;4.40;91.80;;;;;;4952717;28;20057;-80
2021/03/25 02:33:16;;;;;;;69.22;35.08;;;4.40;91.80;;;;;;4981728;28;20042;-77
2021/03/25 02:35:46;;;;;;;63.67;32.97;;;4.40;91.80;;;;;;4982767;28;20401;-78
2021/03/25 02:38:21;;;;;;;64.13;33.78;;;4.40;91.80;;;;;;4983365;28;20381;-77
2021/03/25 02:40:51;;;;;;;68.05;35.33;;;4.40;91.90;;;;;;4986781;28;20044;-77
2021/03/25 02:43:26;;;;;;;77.50;37.63;;;4.30;91.90;;;;;;4980015;28;20129;-77
2021/03/25 02:46:10;;;;;;;73.90;35.60;;;4.40;92.00;;;;;;4986564;28;20072;-77
2021/03/25 02:48:41;;;;;;;87.10;39.47;;;4.40;92.10;;;;;;4981940;28;20035;-77
2021/03/25 02:51:15;;;;;;;79.90;40.00;;;4.50;92.20;;;;;;4983789;28;20427;-80
2021/03/25 02:53:44;;;;;;;80.53;39.53;;;4.60;92.20;;;;;;4987490;28;20536;-77
2021/03/25 02:56:25;;;;;;;77.30;38.47;;;4.60;92.10;;;;;;4981293;28;20046;-77
2021/03/25 02:59:07;;;;;;;77.85;37.03;;;4.70;92.20;;;;;;4976331;28;20121;-77
2021/03/25 03:01:38;;;;;;;76.00;37.17;;;4.70;92.10;;;;;;4981900;28;20057;-80
2021/03/25 03:04:09;;;;;;;71.45;37.00;;;4.80;92.20;;;;;;4986591;28;20046;-78
2021/03/25 03:06:42;;;;;;;75.30;36.80;;;4.80;92.10;;;;;;4988434;28;20210;-79
2021/03/25 03:09:11;;;;;;;;;;;4.80;92.20;;;;;;4995157;28;20051;-78
2021/03/25 03:11:42;;;;;;;71.78;35.97;;;4.80;92.10;;;;;;4979740;28;19964;-77
2021/03/25 03:14:31;;;;;;;76.68;37.55;;;4.90;91.90;;;;;;4986527;28;20066;-78
2021/03/25 03:17:08;;;;;;;68.90;36.10;;;4.90;92.00;;;;;;5004787;28;20122;-79
2021/03/25 03:19:44;;;;;;;81.35;37.03;;;4.90;92.00;;;;;;4990611;28;20044;-79
2021/03/25 03:22:10;;;;;;;73.30;37.13;;;4.80;92.00;;;;;;4987142;28;20041;-77
2021/03/25 03:24:37;;;;;;;68.18;35.63;;;4.80;92.00;;;;;;4986714;28;20044;-81
2021/03/25 03:27:13;;;;;;;73.97;36.83;;;4.80;91.90;;;;;;4982727;28;20045;-79
2021/03/25 03:29:42;;;;;;;75.47;38.05;;;4.70;92.00;;;;;;4991520;28;20061;-81
2021/03/25 03:32:14;;;;;;;78.07;39.47;;;4.70;92.10;;;;;;4987223;28;20034;-78
2021/03/25 03:34:43;;;;;;;80.63;39.38;;;4.70;92.10;;;;;;4988492;28;20035;-78
2021/03/25 03:37:23;;;;;;;80.50;39.05;;;4.70;92.10;;;;;;4978671;28;20034;-78
2021/03/25 03:39:54;;;;;;;90.13;39.55;;;4.70;92.20;;;;;;4996621;28;20065;-79
2021/03/25 03:42:22;;;;;;;70.22;37.13;;;4.70;92.20;;;;;;4985331;28;20426;-78
2021/03/25 03:44:51;;;;;;;72.25;36.90;;;4.70;92.20;;;;;;4966706;28;20042;-77
2021/03/25 03:47:20;;;;;;;74.50;36.00;;;4.60;92.20;;;;;;4981083;28;20042;-78
2021/03/25 03:49:56;;;;;;;76.53;37.42;;;4.60;92.10;;;;;;4988896;28;20485;-77
2021/03/25 03:52:26;;;;;;;78.55;36.47;;;4.60;92.20;;;;;;4988279;28;20034;-78
2021/03/25 03:54:54;;;;;;;83.75;38.15;;;4.50;92.20;;;;;;4985647;28;20145;-77
2021/03/25 03:57:44;;;;;;;75.68;36.85;;;4.50;92.30;;;;;;4982566;28;20786;-77
2021/03/25 04:00:12;;;;;;;67.07;35.17;;;4.50;92.30;;;;;;4994609;28;20374;-77
2021/03/25 04:02:44;;;;;;;76.68;36.75;;;4.50;92.30;;;;;;4985690;28;20054;-78
2021/03/25 04:05:16;;;;;;;75.60;37.83;;;4.50;92.30;;;;;;4989643;28;20033;-77
2021/03/25 04:07:48;;;;;;;80.25;39.63;;;4.50;92.30;;;;;;4981348;28;20043;-80
2021/03/25 04:10:28;;;;;;;76.20;39.08;;;4.50;92.30;;;;;;4991288;28;20042;-80
2021/03/25 04:12:58;;;;;;;74.13;37.17;;;4.60;92.40;;;;;;4985416;28;20035;-78
2021/03/25 04:15:27;;;;;;;80.70;39.78;;;4.60;92.40;;;;;;4984239;28;20486;-79
2021/03/25 04:18:14;;;;;;;72.95;39.10;;;4.70;92.40;;;;;;4977567;28;20558;-77
2021/03/25 04:20:46;;;;;;;84.78;39.22;;;4.70;92.50;;;;;;4988855;28;20034;-77
2021/03/25 04:23:16;;;;;;;74.80;39.87;;;4.80;92.50;;;;;;4987531;28;20103;-78
2021/03/25 04:25:49;;;;;;;84.05;40.97;;;4.80;92.50;;;;;;4986028;28;20297;-78
2021/03/25 04:28:38;;;;;;;78.28;41.35;;;4.90;92.50;;;;;;4983743;28;20073;-77
2021/03/25 04:31:06;;;;;;;76.63;38.38;;;4.90;92.50;;;;;;4982650;28;20054;-79
2021/03/25 04:33:34;;;;;;;81.00;40.47;;;5.00;92.50;;;;;;4979996;28;20561;-77
2021/03/25 04:36:00;;;;;;;81.68;40.78;;;5.00;92.50;;;;;;4987359;28;20088;-81
2021/03/25 04:38:32;;;;;;;75.40;38.78;;;5.00;92.50;;;;;;4978598;28;20049;-78
2021/03/25 04:40:59;;;;;;;75.53;38.90;;;5.00;92.50;;;;;;4981926;28;20042;-80
2021/03/25 04:43:26;;;;;;;83.93;40.72;;;5.10;92.50;;;;;;4984481;28;20069;-78
2021/03/25 04:46:32;;;;;;;84.05;39.45;;;5.10;92.40;;;;;;4982182;28;20097;-77
2021/03/25 04:49:04;;;;;;;75.95;39.03;;;5.10;92.50;;;;;;4990033;28;20049;-77
2021/03/25 04:51:31;;;;;;;80.60;39.97;;;5.10;92.40;;;;;;4990206;28;20034;-78
2021/03/25 04:54:18;;;;;;;79.75;39.45;;;5.10;92.70;;;;;;4985684;28;20095;-80
2021/03/25 04:56:44;;;;;;;81.03;38.70;;;5.00;92.40;;;;;;4986794;28;20125;-78
2021/03/25 04:59:10;;;;;;;84.30;39.97;;;5.00;92.40;;;;;;4984755;28;20118;-78
2021/03/25 05:01:36;;;;;;;75.45;38.60;;;5.00;92.40;;;;;;4978407;28;20039;-77
2021/03/25 05:04:05;;;;;;;81.43;40.92;;;4.90;92.30;;;;;;4968674;28;20080;-77
2021/03/25 05:06:30;;;;;;;73.00;37.92;;;4.90;92.40;;;;;;4975700;28;20061;-78
2021/03/25 05:08:57;;;;;;;76.80;39.70;;;4.90;92.40;;;;;;4974154;28;20517;-78
2021/03/25 05:11:25;;;;;;;77.95;38.80;;;4.80;92.40;;;;;;4976564;28;20271;-77
2021/03/25 05:13:54;;;;;;;79.57;39.00;;;4.80;92.50;;;;;;4981007;28;20346;-79
2021/03/25 05:16:32;;;;;;;83.45;40.90;;;4.70;92.40;;;;;;4981688;28;20555;-78
2021/03/25 05:18:58;;;;;;;80.88;39.13;;;4.70;92.60;;;;;;4987150;28;20039;-77
2021/03/25 05:21:38;;;;;;;87.63;42.15;;;4.70;92.50;;;;;;4982590;28;20042;-79
2021/03/25 05:24:16;;;;;;;88.07;41.20;;;4.60;92.50;;;;;;5000052;28;20170;-79
2021/03/25 05:26:47;;;;;;;83.82;40.90;;;4.60;92.50;;;;;;4982215;28;20038;-77
2021/03/25 05:29:14;;;;;;;87.50;41.25;;;4.60;92.50;;;;;;4962935;28;20077;-76
2021/03/25 05:31:44;;;;;;;88.85;42.08;;;4.60;92.50;;;;;;4960379;28;20035;-79
2021/03/25 05:34:11;;;;;;;90.70;41.38;;;4.50;92.50;;;;;;4963016;28;20042;-79
2021/03/25 05:36:37;;;;;;;98.05;43.38;;;4.60;92.50;;;;;;4962675;28;20069;-78
2021/03/25 05:39:04;;;;;;;80.85;41.75;;;4.60;92.50;;;;;;4981807;28;20497;-78
2021/03/25 05:41:34;;;;;;;87.75;41.28;;;4.60;92.60;;;;;;4959627;28;20045;-79
2021/03/25 05:44:33;;;;;;;83.97;41.72;;;4.50;92.60;;;;;;4962811;28;20137;-79
2021/03/25 05:47:26;;;;;;;93.30;42.28;;;4.60;92.60;;;;;;4980456;28;20093;-79
2021/03/25 05:50:05;;;;;;;96.25;42.35;;;4.50;92.60;;;;;;4983193;28;20026;-76
2021/03/25 05:53:03;;;;;;;84.80;41.22;;;4.50;92.60;;;;;;4988294;28;20049;-76
2021/03/25 05:55:40;;;;;;;93.00;44.15;;;4.50;92.70;;;;;;4988746;28;20053;-77
2021/03/25 05:58:12;;;;;;;83.55;43.78;;;4.50;92.70;;;;;;4966558;28;20047;-79
2021/03/25 06:01:10;;;;;;;92.20;43.55;;;4.50;92.70;;;;;;4991451;28;20069;-77
2021/03/25 06:03:40;;;;;;;102.03;45.00;;;4.50;92.70;;;;;;4980054;28;20038;-79
2021/03/25 06:06:19;;;;;;;98.90;46.45;;;4.60;92.80;;;;;;4983487;28;20097;-74
2021/03/25 06:08:56;;;;;;;88.55;43.97;;;4.60;92.80;;;;;;4982563;28;20054;-76
2021/03/25 06:11:31;;;;;;;96.22;45.25;;;4.60;92.80;;;;;;4987390;28;20034;-75
2021/03/25 06:14:40;;;;;;;102.13;46.67;;;4.60;92.80;;;;;;4977844;28;20046;-78
2021/03/25 06:17:24;;;;;;;99.32;46.00;;;4.70;92.90;;;;;;4965307;28;20038;-76
2021/03/25 06:20:02;;;;;;;107.30;48.40;;;4.80;92.90;;;;;;4973517;28;20045;-75
2021/03/25 06:22:46;;;;;;;103.63;47.35;;;4.90;92.90;;;;;;4989303;28;20054;-75
2021/03/25 06:25:21;;;;;;;95.97;45.33;;;4.90;92.90;;;;;;4990902;28;20041;-78
2021/03/25 06:28:00;;;;;;;95.25;45.78;;;5.00;92.80;;;;;;4989551;28;20082;-79
2021/03/25 06:30:32;;;;;;;95.13;45.85;;;5.10;92.80;;;;;;4971359;28;20062;-78
2021/03/25 06:33:03;;;;;;;98.38;45.90;;;5.10;92.80;;;;;;4970781;28;20043;-79
2021/03/25 06:35:34;;;;;;;99.28;46.92;;;5.10;92.70;;;;;;5005609;28;20435;-79
2021/03/25 06:38:02;;;;;;;94.57;46.90;;;5.20;92.70;;;;;;4984714;28;20098;-76
2021/03/25 06:40:40;;;;;;;97.20;47.03;;;5.30;92.70;;;;;;4990478;28;20089;-76
2021/03/25 06:43:15;;;;;;;97.55;46.40;;;5.30;92.70;;;;;;4989406;28;20485;-79
2021/03/25 06:45:55;;;;;;;102.43;48.10;;;5.40;93.00;;;;;;4985502;28;20034;-79
2021/03/25 06:48:40;;;;;;;107.00;47.45;;;5.50;92.80;;;;;;4985860;28;20037;-79
2021/03/25 06:51:18;;;;;;;100.68;48.00;;;5.50;92.70;;;;;;4969261;28;20058;-77
2021/03/25 06:53:45;;;;;;;96.55;45.92;;;5.60;92.70;;;;;;4987937;28;20030;-78
2021/03/25 06:56:16;;;;;;;95.00;48.55;;;5.70;92.70;;;;;;4958046;28;20473;-76
2021/03/25 06:58:58;;;;;;;100.78;46.90;;;5.70;92.70;;;;;;4987189;28;20660;-79
2021/03/25 07:01:41;;;;;;;97.88;46.92;;;5.80;92.70;;;;;;4979633;28;21545;-79
2021/03/25 07:04:20;;;;;;;105.53;48.38;;;6.00;92.70;;;;;;4989319;28;20043;-76
2021/03/25 07:06:46;;;;;;;92.53;45.40;;;6.00;92.60;;;;;;4980796;28;20492;-76
2021/03/25 07:09:13;;;;;;;101.13;48.45;;;6.10;92.60;;;;;;4982454;28;20050;-76
2021/03/25 07:11:39;;;;;;;96.80;46.65;;;6.30;92.50;;;;;;4988957;28;20477;-76
2021/03/25 07:14:17;;;;;;;97.10;51.47;;;6.40;92.50;;;;;;4993768;28;20062;-79
2021/03/25 07:16:46;;;;;;;97.32;46.28;;;6.50;92.40;;;;;;4983689;28;20128;-74
2021/03/25 07:19:21;;;;;;;93.18;47.08;;;6.70;92.30;;;;;;4996390;28;20026;-80
2021/03/25 07:22:09;;;;;;;94.45;48.15;;;6.80;92.20;;;;;;4993870;28;20406;-79
2021/03/25 07:24:35;;;;;;;100.45;49.85;;;6.90;92.10;;;;;;4991521;28;20038;-79
2021/03/25 07:27:24;;;;;;;95.70;48.50;;;7.00;92.10;;;;;;4973266;28;20064;-78
2021/03/25 07:29:59;;;;;;;102.75;50.70;;;7.10;92.00;;;;;;4976348;28;20050;-80
2021/03/25 07:32:43;;;;;;;106.40;50.53;;;7.20;91.90;;;;;;4992599;28;20456;-76
2021/03/25 07:35:29;;;;;;;105.47;50.58;;;7.40;91.90;;;;;;4995928;28;20069;-76
2021/03/25 07:37:56;;;;;;;103.75;49.97;;;7.50;91.80;;;;;;4992120;28;20039;-79
2021/03/25 07:40:38;;;;;;;98.13;49.55;;;7.60;91.60;;;;;;4976531;28;20034;-79
2021/03/25 07:43:24;;;;;;;109.95;52.92;;;7.70;91.50;;;;;;4992233;28;20319;-77
2021/03/25 07:46:29;;;;;;;92.60;45.95;;;7.80;91.40;;;;;;4968106;28;20045;-78
2021/03/25 07:49:01;;;;;;;95.35;48.47;;;7.90;91.20;;;;;;4984377;28;20046;-78
2021/03/25 07:51:27;;;;;;;101.82;52.30;;;8.00;91.10;;;;;;4983730;28;20049;-78
2021/03/25 07:54:47;;;;;;;95.22;46.97;;;8.10;91.30;;;;;;4983919;28;20039;-78
2021/03/25 07:57:15;;;;;;;100.10;48.45;;;8.20;90.80;;;;;;4976229;28;20652;-78
2021/03/25 07:59:43;;;;;;;86.40;45.90;;;8.30;91.00;;;;;;4959695;28;20064;-79
2021/03/25 08:02:42;;;;;;;98.18;49.88;;;8.30;90.60;;;;;;4971819;28;20038;-78
2021/03/25 08:05:29;;;;;;;99.20;48.60;;;8.40;90.50;;;;;;4954839;28;20042;-78
2021/03/25 08:08:19;;;;;;;100.65;50.22;;;8.40;90.50;;;;;;4983602;28;20391;-78
2021/03/25 08:10:47;;;;;;;101.82;50.10;;;8.40;90.60;;;;;;4972473;28;20046;-78
2021/03/25 08:13:24;;;;;;;92.35;48.42;;;8.50;90.50;;;;;;4982166;28;20496;-78
2021/03/25 08:15:53;;;;;;;94.70;47.75;;;8.50;90.40;;;;;;4978529;28;20109;-78
2021/03/25 08:18:31;;;;;;;97.20;49.88;;;8.50;90.40;;;;;;4981223;28;20260;-78
2021/03/25 08:21:14;;;;;;;94.38;48.38;;;8.60;90.40;;;;;;4987473;28;20083;-78
2021/03/25 08:23:58;;;;;;;96.63;48.95;;;8.70;90.80;;;;;;4985457;28;20034;-79
2021/03/25 08:26:36;;;;;;;86.50;46.92;;;8.70;90.30;;;;;;4985358;28;20437;-79
2021/03/25 08:29:26;;;;;;;94.47;48.00;;;8.80;90.20;;;;;;4984419;28;20034;-78
2021/03/25 08:31:53;;;;;;;89.15;46.58;;;8.90;90.20;;;;;;4988438;28;20489;-78
2021/03/25 08:34:32;;;;;;;85.93;46.75;;;9.00;90.00;;;;;;4984263;28;20036;-78
2021/03/25 08:37:26;;;;;;;88.03;46.38;;;9.10;89.50;;;;;;4985056;28;20042;-78
2021/03/25 08:39:56;;;;;;;88.22;45.97;;;9.20;89.00;;;;;;4965585;28;20128;-78
2021/03/25 08:42:37;;;;;;;86.50;47.92;;;9.30;88.90;;;;;;4983628;28;20129;-78
2021/03/25 08:45:22;;;;;;;89.22;47.15;;;9.30;89.00;;;;;;4984166;28;20037;-78
2021/03/25 08:47:57;;;;;;;87.15;46.63;;;9.40;88.90;;;;;;4981397;28;20042;-78
2021/03/25 08:50:57;;;;;;;85.18;46.83;;;9.40;88.60;;;;;;4991149;28;20050;-78
2021/03/25 08:53:45;;;;;;;94.72;47.35;;;9.50;88.30;;;;;;4977288;28;20050;-78
2021/03/25 08:56:36;;;;;;;89.55;45.45;;;9.50;88.30;;;;;;4979044;28;20031;-78
2021/03/25 08:59:10;;;;;;;82.28;46.97;;;9.60;88.00;;;;;;5001322;28;20041;-78
2021/03/25 09:01:51;;;;;;;85.20;46.50;;;9.70;87.70;;;;;;4982558;28;20248;-78
2021/03/25 09:04:19;;;;;;;91.88;49.00;;;9.80;87.40;;;;;;4985093;28;20038;-78
2021/03/25 09:06:47;;;;;;;93.25;49.75;;;9.90;87.20;;;;;;4996988;28;20134;-79
2021/03/25 09:09:28;;;;;;;94.40;49.83;;;10.00;86.90;;;;;;4985222;28;20543;-78
2021/03/25 09:11:56;;;;;;;90.22;50.65;;;10.00;86.40;;;;;;4989607;28;20050;-78
2021/03/25 09:14:24;;;;;;;93.45;55.00;;;10.10;86.20;;;;;;4985513;28;20065;-78
2021/03/25 09:16:50;;;;;;;92.38;52.75;;;10.20;86.20;;;;;;4983207;28;20490;-77
2021/03/25 09:19:30;;;;;;;92.95;51.45;;;10.30;85.60;;;;;;4985344;28;20162;-78
2021/03/25 09:21:57;;;;;;;92.03;50.15;;;10.40;84.90;;;;;;4991556;28;20073;-78
2021/03/25 09:24:23;;;;;;;91.25;50.30;;;10.40;85.00;;;;;;4986464;28;20089;-79
2021/03/25 09:26:59;;;;;;;96.15;51.75;;;10.50;84.70;;;;;;4984073;28;20038;-78
2021/03/25 09:29:29;;;;;;;92.25;49.72;;;10.60;83.90;;;;;;4988354;28;20477;-79
2021/03/25 09:31:56;;;;;;;84.68;48.13;;;10.70;83.40;;;;;;4988523;28;20046;-80
2021/03/25 09:34:24;;;;;;;84.50;47.92;;;10.80;83.10;;;;;;4989033;28;20084;-78
2021/03/25 09:36:56;;;;;;;81.55;47.13;;;10.90;83.30;;;;;;4982828;28;20042;-77
2021/03/25 09:39:37;;;;;;;87.60;46.57;;;11.10;82.40;;;;;;4984873;28;20046;-78
2021/03/25 09:42:15;;;;;;;80.95;44.20;;;11.10;82.10;;;;;;4978873;28;20301;-77
2021/03/25 09:44:42;;;;;;;70.32;40.30;;;11.20;81.70;;;;;;4984718;28;20061;-78
2021/03/25 09:47:08;;;;;;;72.43;41.50;;;11.30;81.30;;;;;;4988315;28;20030;-78
2021/03/25 09:49:43;;;;;;;68.57;38.92;;;11.40;80.90;;;;;;4986916;28;20034;-77
2021/03/25 09:52:19;;;;;;;70.40;39.03;;;11.50;79.40;;;;;;4985645;28;20062;-78
2021/03/25 09:54:57;;;;;;;74.10;38.30;;;11.50;79.60;;;;;;4991702;28;20084;-77
2021/03/25 09:57:40;;;;;;;59.42;32.92;;;11.50;78.60;;;;;;4986945;28;20046;-79
2021/03/25 10:00:09;;;;;;;;;;;11.40;77.00;;;;;;4998362;28;20045;-79
2021/03/25 10:02:38;;;;;;;62.65;35.22;;;11.30;77.90;;;;;;4981850;28;20395;-79
2021/03/25 10:05:30;;;;;;;57.25;33.17;;;11.40;78.00;;;;;;4988614;28;20400;-78
2021/03/25 10:08:10;;;;;;;63.55;31.48;;;11.50;76.50;;;;;;4987259;28;20124;-77
2021/03/25 10:10:44;;;;;;;55.97;30.73;;;11.50;75.70;;;;;;4988089;28;20066;-79
2021/03/25 10:13:14;;;;;;;57.40;36.33;;;11.60;75.90;;;;;;4980979;28;20165;-79
2021/03/25 10:15:44;;;;;;;66.20;33.63;;;11.70;75.80;;;;;;4983569;28;20046;-77
2021/03/25 10:18:16;;;;;;;66.82;35.97;;;11.80;75.60;;;;;;4982194;28;20045;-77
2021/03/25 10:20:54;;;;;;;61.17;35.67;;;11.90;75.70;;;;;;4981843;28;20468;-78
2021/03/25 10:23:27;;;;;;;61.08;35.38;;;12.10;75.70;;;;;;4984803;28;20038;-78
2021/03/25 10:26:01;;;;;;;59.05;33.60;;;12.20;74.50;;;;;;4992071;28;20038;-78
2021/03/25 10:28:30;;;;;;;59.08;33.22;;;12.30;74.40;;;;;;4986303;28;20907;-79
2021/03/25 10:31:01;;;;;;;54.08;29.27;;;12.40;74.30;;;;;;4994570;28;20445;-79
2021/03/25 10:33:29;;;;;;;56.47;30.83;;;12.50;73.50;;;;;;4984348;28;20146;-78
2021/03/25 10:35:59;;;;;;;49.80;28.80;;;12.60;72.70;;;;;;4983940;28;20045;-78
2021/03/25 10:38:42;;;;;;;57.20;31.50;;;12.60;72.00;;;;;;4987277;28;20034;-78
2021/03/25 10:41:19;;;;;;;57.60;32.50;;;12.70;71.70;;;;;;4986769;28;20432;-78
2021/03/25 10:43:51;;;;;;;60.63;32.28;;;12.90;71.50;;;;;;4983652;28;20480;-79
2021/03/25 10:46:39;;;;;;;66.60;38.17;;;13.00;71.00;;;;;;4980219;28;20039;-79
2021/03/25 10:49:09;;;;;;;67.95;37.55;;;13.10;69.70;;;;;;4981342;28;20034;-78
2021/03/25 10:51:41;;;;;;;61.05;36.92;;;13.30;70.30;;;;;;4982774;28;20038;-78
2021/03/25 10:54:28;;;;;;;63.40;34.70;;;13.40;69.70;;;;;;4988267;28;20499;-78
2021/03/25 10:57:06;;;;;;;63.55;36.55;;;13.50;68.90;;;;;;4974463;28;20894;-79
2021/03/25 10:59:33;;;;;;;62.15;33.03;;;13.50;69.70;;;;;;4991286;28;20095;-78
2021/03/25 11:02:00;;;;;;;57.78;32.60;;;13.60;69.10;;;;;;4986955;28;20038;-78
2021/03/25 11:04:34;;;;;;;64.22;35.45;;;13.60;68.40;;;;;;4987471;28;20083;-78
2021/03/25 11:07:19;;;;;;;60.38;33.88;;;13.70;68.20;;;;;;4986800;28;20265;-78
2021/03/25 11:09:57;;;;;;;59.50;35.33;;;13.70;67.00;;;;;;4989229;28;20038;-78
2021/03/25 11:12:26;;;;;;;61.35;36.05;;;13.70;67.50;;;;;;4983314;28;20162;-78
2021/03/25 11:14:57;;;;;;;57.22;33.30;;;13.80;67.80;;;;;;4984937;28;20435;-78
2021/03/25 11:17:43;;;;;;;58.65;33.20;;;13.90;67.10;;;;;;4979549;28;20125;-78
2021/03/25 11:20:18;;;;;;;61.28;34.65;;;14.00;65.60;;;;;;4986056;28;20031;-78
2021/03/25 11:22:44;;;;;;;52.47;32.28;;;14.10;66.50;;;;;;4985127;28;20030;-78
2021/03/25 11:25:14;;;;;;;64.22;36.78;;;14.20;66.90;;;;;;4966704;28;20113;-77
2021/03/25 11:27:41;;;;;;;60.60;34.53;;;14.20;65.70;;;;;;4984322;28;20122;-78
2021/03/25 11:30:39;;;;;;;68.18;38.47;;;14.20;65.60;;;;;;4984331;28;20064;-79
2021/03/25 11:33:27;;;;;;;64.45;35.97;;;14.20;65.60;;;;;;4946072;28;20042;-80
2021/03/25 11:35:59;;;;;;;67.20;37.58;;;14.20;64.40;;;;;;4987262;28;20062;-80
2021/03/25 11:38:24;;;;;;;70.05;38.65;;;14.20;66.20;;;;;;4980444;28;20034;-80
2021/03/25 11:41:07;;;;;;;62.08;35.88;;;14.20;66.00;;;;;;4979326;28;20034;-80
2021/03/25 11:43:42;;;;;;;54.25;32.55;;;14.30;65.00;;;;;;4986750;28;20432;-82
2021/03/25 11:46:08;;;;;;;55.70;32.47;;;14.40;64.10;;;;;;4982979;28;20061;-79
2021/03/25 11:48:37;;;;;;;49.47;28.85;;;14.40;64.30;;;;;;4981981;28;20118;-79
2021/03/25 11:51:18;;;;;;;49.00;27.08;;;14.50;64.10;;;;;;4980674;28;20400;-79
2021/03/25 11:53:48;;;;;;;48.03;28.92;;;14.60;62.60;;;;;;4981894;28;20066;-80
2021/03/25 11:56:23;;;;;;;49.22;28.35;;;14.50;62.90;;;;;;4979041;28;20380;-79
2021/03/25 11:58:58;;;;;;;53.08;30.27;;;14.50;62.50;;;;;;4984622;28;20039;-80
2021/03/25 12:01:27;;;;;;;52.45;28.95;;;14.50;62.50;;;;;;4983330;28;20112;-80
2021/03/25 12:04:04;;;;;;;48.10;25.88;;;14.50;62.50;;;;;;4981407;28;20038;-81
2021/03/25 12:06:33;;;;;;;52.83;29.80;;;14.60;61.90;;;;;;4985588;28;20038;-81
2021/03/25 12:09:28;;;;;;;46.88;28.25;;;14.50;62.40;;;;;;4978478;28;20104;-80
2021/03/25 12:11:54;;;;;;;47.78;28.70;;;14.50;60.60;;;;;;4971517;28;20042;-79
2021/03/25 12:14:24;;;;;;;44.17;27.95;;;14.50;62.50;;;;;;4983577;28;20035;-81
2021/03/25 12:16:59;;;;;;;48.90;27.38;;;14.40;62.30;;;;;;4987442;28;20072;-80
2021/03/25 12:19:25;;;;;;;49.40;29.10;;;14.50;62.10;;;;;;4984023;28;20038;-79
2021/03/25 12:21:51;;;;;;;45.72;26.65;;;14.50;62.70;;;;;;4977993;28;20350;-79
2021/03/25 12:24:17;;;;;;;44.30;26.10;;;14.50;62.90;;;;;;4979538;28;20121;-79
2021/03/25 12:26:44;;;;;;;44.63;26.20;;;14.60;63.30;;;;;;4984315;28;20398;-79
2021/03/25 12:29:12;;;;;;;45.10;25.48;;;14.60;63.00;;;;;;4983990;28;20038;-80
2021/03/25 12:31:40;;;;;;;35.92;23.02;;;14.50;62.90;;;;;;4982815;28;20045;-79
2021/03/25 12:34:07;;;;;;;43.95;24.23;;;14.40;62.50;;;;;;4982195;28;20035;-80
2021/03/25 12:36:33;;;;;;;46.05;26.52;;;14.30;63.10;;;;;;4966258;28;20042;-79
2021/03/25 12:39:01;;;;;;;50.90;30.05;;;14.20;63.10;;;;;;4983919;28;20496;-80
2021/03/25 12:41:52;;;;;;;51.25;30.33;;;14.10;64.30;;;;;;4982861;28;20113;-80
2021/03/25 12:44:18;;;;;;;51.10;29.77;;;14.10;64.70;;;;;;4979191;28;20515;-79
2021/03/25 12:46:44;;;;;;;50.50;29.65;;;14.00;65.60;;;;;;4981577;28;20035;-80
2021/03/25 12:49:09;;;;;;;56.08;31.27;;;14.10;66.00;;;;;;4983150;28;20092;-79
2021/03/25 12:51:35;;;;;;;48.20;29.35;;;14.10;66.30;;;;;;4985219;28;20034;-80
2021/03/25 12:54:01;;;;;;;48.08;29.20;;;14.20;66.30;;;;;;4969720;28;20057;-81
2021/03/25 12:56:33;;;;;;;51.00;29.45;;;14.20;65.60;;;;;;4977403;28;20307;-80
2021/03/25 12:59:13;;;;;;;49.17;29.23;;;14.30;65.40;;;;;;4967435;28;20034;-80
2021/03/25 13:01:39;;;;;;;52.03;29.73;;;14.30;65.60;;;;;;4984411;28;20408;-80
2021/03/25 13:04:06;;;;;;;47.28;28.08;;;14.50;65.70;;;;;;4980869;28;20042;-80
2021/03/25 13:06:32;;;;;;;52.45;29.55;;;14.40;65.10;;;;;;4983293;28;20034;-80
2021/03/25 13:08:57;;;;;;;46.75;28.58;;;14.40;65.10;;;;;;4983819;28;20046;-80